Terminal Aerodrome Forecast
Issued by NWS

Home | Current Version | Previous Version | Text Only | Print | Product List | Glossary On
Versions: 1 2 3 4 5 6 7 8 9 10 11 12 13 14 15
000
FTUS42 KMHX 240500 CCA
TAFOAJ
TAF COR
KOAJ 240541Z 2406/2506 13011G21KT P6SM VCSH SCT015 BKN025 OVC050
     FM240800 20010G15KT P6SM BKN007
     FM241300 21015G20KT P6SM SCT007 BKN025
     FM242200 19008KT 5SM BR OVC010
      AMD LTD TO CLD VIS AND WIND=

USA.gov is the U.S. government's official web portal to all federal, state and local government web resources and services.